SCCY/GXQ METAR and TAF weather

Enter ICAO airport designator
Station Type Date Time Source
SCCY METAR 2022/06/26 09:00 UTC NOAA

SCCY 260900Z AUTO 00000KT CAVOK M10/M11 Q1014


Station Type Date Time Source
SCCY Decoded METAR 2022/06/26 09:00 UTC NOAA

Coyhaique, Chile (SCCY) 45-35S 072-07W
Jun 26, 2022 - 05:00 AM EDT / 2022.06.26 0900 UTC
Wind: Calm:0
Visibility: greater than 7 mile(s):0
Temperature: 14 F (-10 C)
Dew Point: 12 F (-11 C)
Relative Humidity: 92%
Pressure (altimeter): 29.94 in. Hg (1014 hPa)
ob: SCCY 260900Z AUTO 00000KT CAVOK M10/M11 Q1014
cycle: 9

Station Type Date Time Source
SCCY TAF 2022/06/25 12:33 UTC NOAA

TAF SCCY 251116Z 2512/2524 VRB04KT CAVOK TNM10/2512Z TX04/2518Z

Example: see airport list